Time;durP1;ratioP1;P1;durP2;ratioP2;P2;SDS_P1;SDS_P2;PMS_P1;PMS_P2;Temp;Humidity;BMP_temperature;BMP_pressure;BME280_temperature;BME280_humidity;BME280_pressure;Samples;Min_cycle;Max_cycle;Signal;HPM_P1;HPM_P2
2022/11/07 00:01:39;;;;;;;29.67;14.55;;;;;;;3.25;71.41;100398.59;4936456;29;20052;-90
2022/11/07 00:04:22;;;;;;;32.72;15.77;;;;;;;3.02;71.34;100326.50;4985503;22;20085;-92
2022/11/07 00:07:45;;;;;;;34.55;16.20;;;;;;;3.41;71.35;100397.84;5054174;28;20041;-93
2022/11/07 00:10:37;;;;;;;32.95;15.55;;;;;;;3.37;71.49;100393.97;5066417;22;20121;-89
2022/11/07 00:13:15;;;;;;;33.90;15.85;;;;;;;2.98;71.44;100333.44;5030611;28;20067;-94
2022/11/07 00:16:32;;;;;;;45.80;17.90;;;;;;;3.37;71.64;100382.34;5045812;28;20041;-93
2022/11/07 00:22:42;;;;;;;36.85;16.70;;;;;;;3.15;72.01;100363.25;5049906;28;20040;-91
2022/11/07 00:25:09;;;;;;;31.33;16.58;;;;;;;3.10;71.78;100373.94;5046991;28;20439;-92
2022/11/07 00:27:47;;;;;;;37.25;17.63;;;;;;;3.03;71.83;100344.34;5032959;28;20052;-89
2022/11/07 00:30:31;;;;;;;38.63;17.30;;;;;;;3.05;71.56;100345.75;5015532;28;20132;-91
2022/11/07 00:33:14;;;;;;;36.10;16.45;;;;;;;3.28;71.72;100354.88;5038895;28;20040;-92
2022/11/07 00:36:07;;;;;;;34.95;17.02;;;;;;;3.61;71.25;100392.03;5051962;28;20135;-92
2022/11/07 00:38:51;;;;;;;33.92;16.00;;;;;;;3.53;70.85;100390.50;5070268;28;20037;-91
2022/11/07 00:41:20;;;;;;;34.17;16.23;;;;;;;3.21;71.51;100346.06;5069149;28;20048;-94
2022/11/07 00:46:43;;;;;;;38.75;16.85;;;;;;;3.41;71.36;100342.94;4980472;28;20031;-93
2022/11/07 00:49:34;;;;;;;35.92;16.88;;;;;;;3.47;71.00;100345.50;5092302;22;20067;-89
2022/11/07 00:52:01;;;;;;;36.63;17.00;;;;;;;3.41;70.70;100324.88;5097753;23;20048;-94
2022/11/07 00:54:32;;;;;;;38.70;17.08;;;;;;;3.76;70.75;100377.97;5059286;28;20033;-89
2022/11/07 00:57:02;;;;;;;37.80;17.08;;;;;;;3.61;70.53;100347.94;5074712;28;20064;-89
2022/11/07 00:59:39;;;;;;;34.42;16.17;;;;;;;3.67;70.42;100376.72;5018465;28;20050;-92
2022/11/07 01:05:41;;;;;;;39.38;17.40;;;;;;;3.36;71.28;100332.06;4995584;28;20157;-95
2022/11/07 01:08:13;;;;;;;40.17;17.42;;;;;;;3.45;71.75;100349.53;4998179;23;20041;-94
2022/11/07 01:10:43;;;;;;;35.28;16.90;;;;;;;3.73;71.25;100351.41;5086951;22;20044;-94
2022/11/07 01:13:13;;;;;;;38.28;17.67;;;;;;;3.43;70.64;100287.59;5070073;28;20025;-91
2022/11/07 01:15:50;;;;;;;35.97;18.33;;;;;;;3.28;70.73;100290.84;5189729;23;20154;-94
2022/11/07 01:19:16;;;;;;;37.33;17.42;;;;;;;3.71;70.96;100357.06;5065507;28;20071;-96
2022/11/07 01:22:38;;;;;;;37.35;18.02;;;;;;;3.63;71.37;100346.63;5006687;28;20057;-88
2022/11/07 01:25:28;;;;;;;39.25;18.17;;;;;;;3.59;71.72;100347.38;4993987;28;20589;-94
2022/11/07 01:28:07;;;;;;;40.83;19.23;;;;;;;3.60;71.78;100341.69;5012383;28;20052;-91
2022/11/07 01:30:39;;;;;;;44.70;18.55;;;;;;;3.38;71.85;100306.44;5197069;22;20060;-89
2022/11/07 01:33:18;;;;;;;41.65;19.20;;;;;;;3.21;71.70;100262.31;5075000;28;20041;-90
2022/11/07 01:39:50;;;;;;;;;;;;;;;3.76;71.01;100323.88;5038699;28;20036;-96
2022/11/07 01:42:21;;;;;;;40.95;17.23;;;;;;;3.62;71.08;100288.22;5159012;22;19947;31
2022/11/07 01:44:54;;;;;;;43.10;19.13;;;;;;;3.44;70.81;100256.78;5017428;23;20037;-92
2022/11/07 01:47:23;;;;;;;36.17;16.80;;;;;;;3.23;70.88;100241.28;5052728;22;20057;-91
2022/11/07 01:50:09;;;;;;;40.38;19.40;;;;;;;3.58;71.73;100316.81;4997287;28;20038;-91
2022/11/07 01:52:55;;;;;;;38.97;17.60;;;;;;;3.58;71.96;100326.81;5010548;23;21575;-91
2022/11/07 01:58:07;;;;;;;42.50;19.42;;;;;;;3.64;72.42;100317.69;5047028;23;20140;-93
2022/11/07 02:00:35;;;;;;;40.58;18.55;;;;;;;3.31;72.15;100284.09;5027624;28;20410;-91
2022/11/07 02:03:29;;;;;;;40.20;19.10;;;;;;;3.68;72.01;100319.69;5023677;28;20104;-94
2022/11/07 02:10:06;;;;;;;39.60;18.90;;;;;;;3.70;72.25;100316.75;5068972;23;20525;-94
2022/11/07 02:12:39;;;;;;;42.10;18.15;;;;;;;3.69;72.34;100309.69;5012994;28;20047;-94
2022/11/07 02:16:34;;;;;;;36.47;17.33;;;;;;;3.84;71.87;100304.56;5036928;23;20438;-93
2022/11/07 02:19:10;;;;;;;41.05;18.23;;;;;;;3.48;71.84;100263.38;5006442;28;20050;-94
2022/11/07 02:21:59;;;;;;;40.93;18.70;;;;;;;3.90;71.72;100308.97;5046652;28;20164;-89
2022/11/07 02:24:41;;;;;;;39.17;18.85;;;;;;;3.46;71.25;100227.66;5044393;23;20081;-95
2022/11/07 02:27:18;;;;;;;40.90;19.15;;;;;;;3.84;72.11;100304.56;5025232;28;20120;-94
2022/11/07 02:29:59;;;;;;;44.42;19.00;;;;;;;3.53;71.76;100232.91;5026560;28;20053;-91
2022/11/07 02:32:26;;;;;;;39.65;17.77;;;;;;;3.51;71.24;100233.16;5060855;22;20064;-93
2022/11/07 02:42:15;;;;;;;42.50;18.63;;;;;;;3.75;71.92;100279.78;5005698;28;20041;-92
2022/11/07 02:44:41;;;;;;;40.67;17.63;;;;;;;3.75;71.98;100274.38;4956648;28;20050;-91
2022/11/07 02:47:14;;;;;;;41.67;17.92;;;;;;;3.40;71.64;100227.78;4987909;28;20044;-94
2022/11/07 02:49:41;;;;;;;45.20;19.08;;;;;;;3.56;71.88;100245.94;4990299;28;20038;-95
2022/11/07 02:52:07;;;;;;;45.45;19.10;;;;;;;3.59;72.04;100260.84;4994105;28;20248;-94
2022/11/07 02:55:36;;;;;;;41.75;18.40;;;;;;;3.88;72.03;100289.47;5044909;28;20065;-90
2022/11/07 02:58:12;;;;;;;46.58;19.35;;;;;;;3.48;72.05;100230.94;5031865;28;20049;-89
2022/11/07 03:00:41;;;;;;;42.37;18.23;;;;;;;3.55;72.38;100247.00;5070039;23;20057;-89
2022/11/07 03:03:07;;;;;;;39.72;19.08;;;;;;;3.81;72.45;100261.78;5030646;28;20041;-90
2022/11/07 03:05:34;;;;;;;43.85;17.88;;;;;;;3.85;71.86;100260.22;4995488;28;20099;-94
2022/11/07 03:08:25;;;;;;;36.50;16.48;;;;;;;3.95;71.87;100284.72;5038073;28;20041;-95
2022/11/07 03:11:01;;;;;;;39.10;17.67;;;;;;;3.65;71.83;100235.53;4993582;28;20121;-94
2022/11/07 03:13:27;;;;;;;39.45;17.90;;;;;;;3.75;72.32;100249.22;5012766;28;20045;-90
2022/11/07 03:16:06;;;;;;;34.72;16.15;;;;;;;3.61;71.79;100212.75;5058878;28;20037;-94
2022/11/07 03:18:59;;;;;;;33.58;16.88;;;;;;;3.94;71.84;100277.69;5032838;23;20061;-96
2022/11/07 03:21:43;;;;;;;28.80;13.63;;;;;;;3.44;71.97;100221.66;5006431;22;20037;-91
2022/11/07 03:24:09;;;;;;;30.55;15.52;;;;;;;3.59;72.27;100237.34;5084452;28;20036;-93
2022/11/07 03:26:38;;;;;;;33.95;16.27;;;;;;;3.52;72.09;100206.94;5046158;28;20048;-94
2022/11/07 03:29:05;;;;;;;32.28;15.18;;;;;;;3.64;72.30;100226.63;5019879;23;20049;-92
2022/11/07 03:31:58;;;;;;;30.67;15.52;;;;;;;3.94;72.28;100274.13;5004202;28;20059;-93
2022/11/07 03:34:24;;;;;;;32.08;14.55;;;;;;;3.52;72.13;100217.75;4993190;28;20049;-93
2022/11/07 03:37:12;;;;;;;31.50;15.20;;;;;;;3.75;72.28;100241.94;5052751;23;20055;-90
2022/11/07 03:40:05;;;;;;;29.23;14.30;;;;;;;4.08;71.96;100266.53;4966980;28;20149;-93
2022/11/07 03:46:05;;;;;;;33.05;13.65;;;;;;;3.76;70.51;100177.84;4994946;28;20065;-96
2022/11/07 03:48:31;;;;;;;31.92;15.55;;;;;;;4.12;70.83;100240.63;4979832;28;20084;-91
2022/11/07 03:50:58;;;;;;;28.33;13.38;;;;;;;3.89;71.04;100238.91;4966293;28;20042;-89
2022/11/07 03:53:24;;;;;;;28.73;14.40;;;;;;;3.97;71.54;100236.63;4978496;23;20087;-94
2022/11/07 03:55:52;;;;;;;26.60;12.82;;;;;;;3.91;71.09;100205.13;5026345;28;20091;-92
2022/11/07 03:58:20;;;;;;;25.92;12.48;;;;;;;3.92;70.71;100211.38;5026899;28;20049;-92
2022/11/07 04:00:50;;;;;;;28.17;14.15;;;;;;;3.77;71.16;100195.69;5044544;28;20110;-95
2022/11/07 04:03:18;;;;;;;26.00;13.32;;;;;;;3.74;71.00;100201.59;5026653;28;20036;-91
2022/11/07 04:05:46;;;;;;;27.63;12.98;;;;;;;4.22;71.29;100251.59;5012562;28;20048;-94
2022/11/07 04:08:31;;;;;;;;;;;;;;;4.23;71.13;100264.06;5012195;28;20570;-94
2022/11/07 04:10:57;;;;;;;26.70;13.32;;;;;;;3.76;71.30;100200.28;5022772;28;20439;-88
2022/11/07 04:18:57;;;;;;;26.10;12.55;;;;;;;4.04;71.46;100249.97;5055996;28;20033;-92
2022/11/07 04:21:23;;;;;;;23.92;12.73;;;;;;;4.09;71.54;100273.56;5060685;28;20421;-92
2022/11/07 04:24:05;;;;;;;25.80;13.15;;;;;;;3.70;71.93;100219.38;5052215;28;20056;-87
2022/11/07 04:30:18;;;;;;;25.85;12.65;;;;;;;3.97;72.41;100277.19;5075627;22;20057;-93
2022/11/07 04:32:47;;;;;;;24.38;12.40;;;;;;;3.85;72.90;100272.94;5002550;28;20056;-95
2022/11/07 04:35:29;;;;;;;25.88;12.07;;;;;;;3.75;72.75;100254.63;5020499;28;20041;-92
2022/11/07 04:38:00;;;;;;;22.83;10.82;;;;;;;3.69;72.65;100252.91;5015285;28;20042;-87
2022/11/07 04:40:31;;;;;;;26.67;12.43;;;;;;;3.68;72.99;100246.69;5007717;28;20034;-90
2022/11/07 04:42:57;;;;;;;23.60;11.75;;;;;;;3.88;72.98;100278.66;5000746;28;20521;-90
2022/11/07 04:45:24;;;;;;;28.38;12.23;;;;;;;3.63;72.85;100243.88;5033869;28;20038;-88
2022/11/07 04:47:50;;;;;;;24.63;12.68;;;;;;;3.71;73.28;100258.91;4997094;28;20452;-90
2022/11/07 04:50:18;;;;;;;29.73;13.43;;;;;;;3.72;73.56;100265.94;4993928;28;20033;-90
2022/11/07 04:52:45;;;;;;;28.27;12.88;;;;;;;3.55;73.66;100257.00;4999895;28;20038;-87
2022/11/07 04:55:16;;;;;;;;;;;;;;;3.74;73.97;100267.34;5035019;28;20510;-89
2022/11/07 04:57:42;;;;;;;27.85;12.65;;;;;;;3.52;74.07;100245.59;5025581;28;20362;-88
2022/11/07 05:00:09;;;;;;;21.13;10.55;;;;;;;3.50;74.21;100261.22;5017420;28;20037;-91
2022/11/07 05:02:35;;;;;;;27.30;11.63;;;;;;;3.34;74.40;100234.16;5000949;28;20103;-88
2022/11/07 05:05:01;;;;;;;25.73;11.70;;;;;;;3.56;74.65;100261.34;5034737;28;20507;-87
2022/11/07 05:07:27;;;;;;;24.00;11.63;;;;;;;3.53;74.68;100255.34;5034617;28;20046;-87
2022/11/07 05:09:53;;;;;;;27.75;12.43;;;;;;;3.41;74.91;100256.44;5000983;28;20037;-88
2022/11/07 05:12:19;;;;;;;25.73;12.10;;;;;;;3.25;74.75;100214.84;5017822;28;20160;-91
2022/11/07 05:14:54;;;;;;;24.70;11.40;;;;;;;3.56;74.62;100272.16;5034731;28;20038;-87
2022/11/07 05:17:20;;;;;;;23.10;11.30;;;;;;;3.39;74.78;100237.78;5035012;28;20502;-88
2022/11/07 05:19:46;;;;;;;24.27;12.02;;;;;;;3.58;75.08;100270.03;4984356;28;20136;-88
2022/11/07 05:24:57;;;;;;;29.30;13.48;;;;;;;3.47;74.52;100231.16;5034603;28;20049;-86
2022/11/07 05:27:24;;;;;;;31.20;14.60;;;;;;;3.56;74.94;100250.53;5017698;28;20056;-86
2022/11/07 05:29:50;;;;;;;30.08;13.38;;;;;;;3.42;74.76;100250.00;5000619;28;20045;-89
2022/11/07 05:32:17;;;;;;;26.03;12.17;;;;;;;3.46;75.08;100248.44;5001350;28;20056;-89
2022/11/07 05:34:43;;;;;;;26.25;12.98;;;;;;;3.38;75.50;100246.97;5017301;28;20053;-89
2022/11/07 05:37:11;;;;;;;29.88;12.05;;;;;;;3.49;75.40;100266.88;5000490;28;20037;-88
2022/11/07 05:39:37;;;;;;;29.25;11.98;;;;;;;3.39;75.56;100250.50;5016903;28;20506;-90
2022/11/07 05:42:04;;;;;;;28.23;13.40;;;;;;;3.45;75.54;100247.63;5011845;28;20511;-90
2022/11/07 05:44:30;;;;;;;25.52;12.63;;;;;;;3.63;74.98;100270.09;4995967;28;20097;-89
2022/11/07 05:49:31;;;;;;;28.08;12.55;;;;;;;3.64;75.29;100275.28;5012266;28;20473;-88
2022/11/07 05:51:57;;;;;;;27.42;11.95;;;;;;;3.45;75.24;100230.59;4995443;28;20129;-86
2022/11/07 05:54:26;;;;;;;23.67;11.38;;;;;;;3.47;75.54;100261.72;5011325;28;20058;-85
2022/11/07 05:57:17;;;;;;;25.75;12.57;;;;;;;3.59;75.68;100268.97;4979141;28;20096;-87
2022/11/07 05:59:43;;;;;;;31.77;13.50;;;;;;;3.60;75.70;100260.59;4962882;28;20531;-87
2022/11/07 06:02:11;;;;;;;32.47;12.77;;;;;;;3.56;75.38;100243.22;4996859;28;20092;-94
2022/11/07 06:04:37;;;;;;;33.38;12.10;;;;;;;3.74;75.22;100269.22;4997255;28;20192;-91
2022/11/07 06:07:03;;;;;;;26.47;12.27;;;;;;;3.40;75.03;100217.81;4997819;28;20054;-93
2022/11/07 06:09:29;;;;;;;29.15;13.25;;;;;;;3.50;75.03;100244.19;4998263;28;20507;-91
2022/11/07 06:11:55;;;;;;;29.70;13.25;;;;;;;3.75;75.26;100277.09;4997584;28;20044;-88
2022/11/07 06:14:22;;;;;;;27.75;12.50;;;;;;;3.71;74.89;100259.72;4996924;28;20137;-91
2022/11/07 06:16:48;;;;;;;27.30;12.52;;;;;;;3.49;74.92;100226.34;4997641;28;20058;-91
2022/11/07 06:19:14;;;;;;;29.85;13.13;;;;;;;3.77;75.19;100274.13;5005312;28;20037;-92
2022/11/07 06:21:40;;;;;;;32.35;13.15;;;;;;;3.68;74.78;100246.69;5004510;28;20128;-93
2022/11/07 06:24:09;;;;;;;27.95;12.63;;;;;;;3.62;75.33;100241.44;5044371;28;20042;-90
2022/11/07 06:26:35;;;;;;;30.42;12.77;;;;;;;3.73;75.02;100271.09;5046445;28;20048;-92
2022/11/07 06:29:01;;;;;;;26.17;12.67;;;;;;;3.74;75.06;100267.34;5025462;28;20084;-92
2022/11/07 06:31:28;;;;;;;26.55;11.63;;;;;;;3.68;74.71;100257.50;5004671;28;20284;-92
2022/11/07 06:33:54;;;;;;;28.17;12.32;;;;;;;3.73;74.91;100262.97;5022936;28;20030;-88
2022/11/07 06:36:23;;;;;;;31.48;12.95;;;;;;;3.60;75.09;100244.38;5028128;28;20088;-91
2022/11/07 06:39:10;;;;;;;34.13;12.70;;;;;;;3.25;74.91;100204.03;5016950;28;20042;-94
2022/11/07 06:41:37;;;;;;;27.35;12.27;;;;;;;3.65;74.96;100258.00;5016405;28;20132;-91
2022/11/07 06:44:03;;;;;;;27.65;13.00;;;;;;;3.84;75.02;100282.09;5023169;28;20075;-87
2022/11/07 06:46:49;;;;;;;28.67;13.52;;;;;;;3.79;74.81;100263.91;5042872;28;20091;-94
2022/11/07 06:49:15;;;;;;;32.72;13.45;;;;;;;3.93;74.71;100291.44;4960983;29;20047;-95
2022/11/07 06:51:45;;;;;;;24.77;12.93;;;;;;;3.96;74.49;100272.03;4956547;29;20057;-96
2022/11/07 06:54:12;;;;;;;30.80;12.63;;;;;;;4.00;74.61;100265.84;4954861;29;20075;-92
2022/11/07 06:56:38;;;;;;;26.92;12.75;;;;;;;3.87;74.20;100238.31;4937400;29;20047;-94
2022/11/07 06:59:04;;;;;;;27.30;12.65;;;;;;;3.89;74.01;100225.38;4960808;28;20035;-87
2022/11/07 07:01:55;;;;;;;29.63;13.27;;;;;;;4.17;74.09;100267.75;4953501;29;20541;-87
2022/11/07 07:04:47;;;;;;;;;;;;;;;4.15;74.04;100269.88;4950193;29;20082;-91
2022/11/07 07:09:48;;;;;;;30.52;13.73;;;;;;;3.86;74.01;100232.09;4954667;29;20043;-91
2022/11/07 07:12:14;;;;;;;26.30;12.15;;;;;;;3.80;74.52;100229.56;4954251;29;20069;-92
2022/11/07 07:14:41;;;;;;;30.73;13.73;;;;;;;4.07;74.43;100248.63;4923486;29;20043;-93
2022/11/07 07:17:08;;;;;;;27.30;12.20;;;;;;;3.98;73.88;100240.13;4953168;29;20050;-91
2022/11/07 07:19:36;;;;;;;28.45;13.55;;;;;;;4.04;74.18;100254.53;4936902;29;20051;-92
2022/11/07 07:22:02;;;;;;;28.40;12.43;;;;;;;3.93;74.10;100226.53;4954657;29;20055;-94
2022/11/07 07:24:39;;;;;;;24.70;12.65;;;;;;;4.08;73.88;100245.72;4921290;29;20042;-93
2022/11/07 07:27:06;;;;;;;;;;;;;;;4.18;73.92;100255.88;4985974;28;20076;-93
2022/11/07 07:29:32;;;;;;;33.22;11.90;;;;;;;3.98;74.23;100245.56;5034210;28;19971;-94
2022/11/07 07:34:53;;;;;;;29.73;12.15;;;;;;;3.67;74.49;100200.94;5019153;28;20041;-89
2022/11/07 07:37:19;;;;;;;29.55;12.98;;;;;;;3.97;74.55;100244.72;5013124;28;20049;-92
2022/11/07 07:39:45;;;;;;;33.38;12.15;;;;;;;3.80;74.44;100208.72;5039375;28;20045;-93
2022/11/07 07:42:14;;;;;;;29.63;13.30;;;;;;;3.95;74.69;100238.75;5035164;28;20048;-93
2022/11/07 07:44:44;;;;;;;29.55;13.48;;;;;;;4.12;74.35;100246.84;5030614;28;20117;-91
2022/11/07 07:47:10;;;;;;;33.08;13.30;;;;;;;4.13;73.94;100248.47;5015511;28;20559;-92
2022/11/07 07:49:38;;;;;;;29.35;13.63;;;;;;;4.30;73.74;100270.09;5015272;28;20037;-91
2022/11/07 07:52:12;;;;;;;33.83;13.95;;;;;;;4.27;74.00;100267.06;5030297;28;20080;-89
2022/11/07 07:54:48;;;;;;;32.67;13.88;;;;;;;4.22;74.15;100263.22;4983567;28;20119;-91
2022/11/07 07:57:15;;;;;;;31.70;14.70;;;;;;;4.20;74.16;100256.41;5016317;28;20053;-92
2022/11/07 07:59:41;;;;;;;36.85;15.02;;;;;;;4.24;74.00;100260.28;5034115;28;20039;-91
2022/11/07 08:02:32;;;;;;;30.05;13.77;;;;;;;4.14;74.19;100270.94;5019837;28;20140;-91
2022/11/07 08:04:58;;;;;;;32.20;14.45;;;;;;;3.96;74.18;100234.16;4983545;28;20042;-92
2022/11/07 08:07:25;;;;;;;32.10;13.68;;;;;;;4.04;75.08;100241.88;5035032;28;20033;-93
2022/11/07 08:09:51;;;;;;;30.35;13.98;;;;;;;4.04;74.91;100227.50;5001288;28;20033;-93
2022/11/07 08:12:18;;;;;;;32.15;13.43;;;;;;;4.28;74.85;100271.44;5007607;28;20097;-95
2022/11/07 08:14:45;;;;;;;29.40;13.48;;;;;;;4.17;74.70;100243.38;5019906;28;20052;-92
2022/11/07 08:17:11;;;;;;;;;;;;;;;4.40;73.95;100269.44;5019093;28;20449;-91
2022/11/07 08:19:38;;;;;;;31.05;12.25;;;;;;;4.47;73.90;100264.69;5026896;28;19927;-91
2022/11/07 08:22:04;;;;;;;29.33;12.63;;;;;;;4.45;73.79;100251.38;4984036;28;20065;-92
2022/11/07 08:24:30;;;;;;;29.30;14.32;;;;;;;4.29;73.63;100221.66;5001730;28;20299;-95
2022/11/07 08:26:56;;;;;;;27.48;12.85;;;;;;;4.38;73.81;100225.56;5034669;28;20042;-90
2022/11/07 08:29:48;;;;;;;34.67;14.23;;;;;;;4.60;73.41;100258.06;5072151;22;20444;-90
2022/11/07 08:32:14;;;;;;;27.13;13.27;;;;;;;4.48;73.33;100229.22;4994647;28;20049;-90
2022/11/07 08:34:53;;;;;;;31.38;13.70;;;;;;;4.40;72.76;100210.72;5007361;28;20042;-87
2022/11/07 08:37:46;;;;;;;36.17;14.15;;;;;;;4.64;73.26;100245.69;5029815;28;20056;-86
2022/11/07 08:40:22;;;;;;;27.17;11.73;;;;;;;4.35;72.95;100191.69;5032906;28;20076;-87
2022/11/07 08:44:20;;;;;;;32.78;12.32;;;;;;;4.48;72.97;100215.69;5002700;28;20062;-85
2022/11/07 08:47:43;;;;;;;32.58;14.05;;;;;;;4.56;73.20;100252.34;5035689;28;20025;-85
2022/11/07 08:56:09;;;;;;;33.28;13.25;;;;;;;4.62;73.33;100239.69;5071124;22;20025;-88
2022/11/07 08:59:19;;;;;;;32.47;15.00;;;;;;;4.68;73.26;100244.94;5035935;28;20041;-87
2022/11/07 09:01:48;;;;;;;29.02;13.85;;;;;;;4.39;73.26;100200.13;4966911;28;20046;-86
2022/11/07 09:04:14;;;;;;;29.50;14.25;;;;;;;4.50;73.28;100187.53;4983879;28;20048;-85
2022/11/07 09:06:52;;;;;;;36.08;14.30;;;;;;;4.47;73.10;100195.13;4983059;28;20049;-87
2022/11/07 09:09:19;;;;;;;30.80;13.93;;;;;;;4.72;73.06;100229.81;5013983;23;20144;-92
2022/11/07 09:12:12;;;;;;;23.67;11.35;;;;;;;4.22;72.71;100160.38;5020641;28;20045;-90
2022/11/07 09:14:45;;;;;;;28.88;12.45;;;;;;;4.66;73.09;100225.38;5028242;28;20076;-91
2022/11/07 09:17:37;;;;;;;27.42;13.02;;;;;;;4.78;72.88;100240.72;4994665;28;20042;-89
2022/11/07 09:20:25;;;;;;;24.67;11.60;;;;;;;4.55;73.08;100212.81;5030287;28;20068;-88
2022/11/07 09:22:56;;;;;;;25.08;11.85;;;;;;;4.63;72.89;100231.31;5025769;28;20045;-91
2022/11/07 09:25:50;;;;;;;22.83;10.30;;;;;;;4.68;73.29;100238.69;5025725;28;20050;-88
2022/11/07 09:31:33;;;;;;;28.75;15.18;;;;;;;4.60;72.89;100202.06;5022408;28;20056;-85
2022/11/07 09:33:59;;;;;;;27.55;12.57;;;;;;;4.77;72.66;100236.34;5014272;28;20041;-89
2022/11/07 09:36:27;;;;;;;31.50;15.30;;;;;;;4.66;73.05;100203.72;4982791;28;20049;-94
2022/11/07 09:38:56;;;;;;;26.55;13.50;;;;;;;4.79;73.16;100234.22;5016839;28;20519;-85
2022/11/07 09:45:28;;;;;;;22.65;10.55;;;;;;;4.77;73.13;100220.94;5015037;28;20061;-86
2022/11/07 09:48:04;;;;;;;25.25;11.25;;;;;;;4.54;73.25;100194.94;4944071;29;20091;-86
2022/11/07 09:53:43;;;;;;;29.50;12.85;;;;;;;4.80;72.88;100225.84;4954919;29;20056;-87
2022/11/07 09:56:11;;;;;;;25.40;11.40;;;;;;;4.69;72.84;100205.13;4936402;29;20071;-91
2022/11/07 09:58:50;;;;;;;26.05;12.30;;;;;;;4.79;73.00;100224.19;4936431;29;20074;-89
2022/11/07 10:01:19;;;;;;;29.42;11.23;;;;;;;4.58;73.37;100195.25;4939053;29;20143;-92
2022/11/07 10:03:45;;;;;;;26.55;11.88;;;;;;;4.59;73.12;100188.75;4941501;29;20420;-91
2022/11/07 10:06:32;;;;;;;30.77;12.67;;;;;;;4.77;73.29;100220.94;4942613;29;20039;-85
2022/11/07 10:09:21;;;;;;;30.25;13.75;;;;;;;4.75;73.16;100206.00;4924829;29;20310;-88
2022/11/07 10:12:23;;;;;;;25.25;11.93;;;;;;;4.85;73.10;100231.31;5043093;23;20111;-92
2022/11/07 10:15:15;;;;;;;26.15;12.55;;;;;;;4.84;73.21;100226.97;5029187;28;20044;-87
2022/11/07 10:18:06;;;;;;;26.17;12.50;;;;;;;4.42;73.06;100162.53;5071868;28;20086;-95
2022/11/07 10:21:06;;;;;;;29.70;13.07;;;;;;;4.65;73.30;100233.78;5079822;28;20048;-85
2022/11/07 10:24:09;;;;;;;27.75;11.73;;;;;;;4.61;73.54;100221.81;5061363;28;20037;-88
2022/11/07 10:26:36;;;;;;;31.25;11.48;;;;;;;4.65;73.87;100221.06;5076747;28;20068;-94
2022/11/07 10:29:20;;;;;;;28.85;13.45;;;;;;;4.34;73.62;100168.41;5079720;28;20032;-95
2022/11/07 10:32:17;;;;;;;28.17;12.73;;;;;;;4.65;73.78;100217.53;5063275;28;20044;-92
2022/11/07 10:34:50;;;;;;;28.98;12.77;;;;;;;4.59;73.75;100189.56;5082603;28;20044;-93
2022/11/07 10:37:16;;;;;;;31.27;13.85;;;;;;;4.64;73.33;100195.06;5082986;28;20115;-89
2022/11/07 10:39:48;;;;;;;33.83;13.98;;;;;;;4.47;73.48;100165.34;5055055;28;20041;-90
2022/11/07 10:42:33;;;;;;;29.75;13.30;;;;;;;4.62;73.26;100183.63;5086999;28;20502;-90
2022/11/07 10:45:07;;;;;;;31.38;12.60;;;;;;;4.62;73.52;100190.94;5083636;28;20071;-94
2022/11/07 10:47:33;;;;;;;30.38;13.10;;;;;;;4.73;73.84;100214.38;5047887;28;20072;-95
2022/11/07 10:50:04;;;;;;;32.92;14.48;;;;;;;4.67;73.75;100193.75;5063745;28;20064;-90
2022/11/07 10:52:32;;;;;;;33.13;13.88;;;;;;;4.44;73.28;100155.00;5072587;28;20170;-93
2022/11/07 10:55:14;;;;;;;40.03;15.23;;;;;;;4.71;73.72;100202.97;5059582;28;20374;-93
2022/11/07 10:57:41;;;;;;;31.85;14.18;;;;;;;4.74;73.95;100199.78;5041162;28;20041;-92
2022/11/07 11:00:31;;;;;;;38.30;15.15;;;;;;;4.76;73.76;100205.75;5073729;28;20127;-94
2022/11/07 11:02:59;;;;;;;32.17;14.52;;;;;;;4.70;73.68;100187.78;5077450;28;20519;-93
2022/11/07 11:05:30;;;;;;;37.03;15.45;;;;;;;4.83;73.28;100206.34;5056205;28;20692;-83
2022/11/07 11:08:21;;;;;;;38.20;15.95;;;;;;;4.77;73.10;100193.84;5039568;28;20048;-95
2022/11/07 11:10:48;;;;;;;35.42;15.10;;;;;;;4.86;73.16;100205.84;5074124;28;20037;-92
2022/11/07 11:13:29;;;;;;;37.72;14.60;;;;;;;4.78;73.47;100208.22;5072980;28;20128;-93
2022/11/07 11:16:06;;;;;;;38.47;15.45;;;;;;;4.79;73.62;100188.97;5072326;28;20048;-92
2022/11/07 11:18:35;;;;;;;;;;;;;;;4.97;73.23;100197.84;5058662;28;20060;-87
2022/11/07 11:21:02;;;;;;;34.88;15.07;;;;;;;4.91;73.28;100205.13;5056476;28;19921;-93
2022/11/07 11:23:36;;;;;;;69.50;30.75;;;;;;;4.85;73.40;100214.25;5075718;28;20109;-90
2022/11/07 11:26:28;;;;;;;35.97;15.65;;;;;;;4.45;73.34;100161.22;5074735;28;20070;-93
2022/11/07 11:29:08;;;;;;;42.03;16.05;;;;;;;4.51;74.04;100162.94;5054907;28;20036;-93
2022/11/07 11:31:38;;;;;;;39.28;16.35;;;;;;;4.74;73.88;100205.19;5039024;28;20094;-85
2022/11/07 11:34:20;;;;;;;41.40;17.33;;;;;;;4.84;73.94;100201.78;5039980;28;20036;-93
2022/11/07 11:37:01;;;;;;;42.70;17.65;;;;;;;4.70;73.76;100169.66;5072036;28;20037;-94
2022/11/07 11:40:26;;;;;;;43.00;17.80;;;;;;;4.91;73.52;100211.34;5067570;28;20044;-95
2022/11/07 11:42:59;;;;;;;47.33;18.92;;;;;;;4.49;73.58;100151.53;5045554;28;20139;-92
2022/11/07 11:45:49;;;;;;;47.28;17.77;;;;;;;4.84;73.33;100189.06;5036328;28;20041;-93
2022/11/07 11:48:25;;;;;;;53.13;18.30;;;;;;;4.92;73.26;100212.97;5055446;28;20564;-94
2022/11/07 11:51:13;;;;;;;46.50;18.50;;;;;;;4.86;73.65;100195.03;5037833;28;20083;-92
2022/11/07 11:54:15;;;;;;;48.83;18.23;;;;;;;4.97;72.75;100198.69;5043520;28;20048;-94
2022/11/07 11:56:48;;;;;;;71.95;28.90;;;;;;;5.05;72.89;100202.81;5074154;28;20086;-93
2022/11/07 11:59:35;;;;;;;61.33;25.20;;;;;;;5.10;72.86;100192.03;5039706;28;20506;-92
2022/11/07 12:06:10;;;;;;;46.47;18.30;;;;;;;4.93;72.73;100192.97;5072520;28;20048;-92
2022/11/07 12:08:49;;;;;;;46.58;18.70;;;;;;;5.06;73.11;100185.47;5073291;28;20044;-94
2022/11/07 12:11:48;;;;;;;39.97;16.75;;;;;;;4.87;72.80;100161.47;5074716;28;20043;-94
2022/11/07 12:14:52;;;;;;;39.63;16.15;;;;;;;4.85;73.43;100166.31;5073437;28;20052;-92
2022/11/07 12:17:43;;;;;;;40.40;16.17;;;;;;;4.88;73.60;100176.63;5050182;28;20045;-93
2022/11/07 12:20:30;;;;;;;47.17;17.38;;;;;;;4.88;72.91;100151.44;5039303;28;20044;-93
2022/11/07 12:23:04;;;;;;;38.80;15.65;;;;;;;4.91;72.92;100169.91;5041119;28;20441;-94
2022/11/07 12:26:10;;;;;;;36.63;15.52;;;;;;;4.79;72.74;100142.13;5055267;28;20037;-94
2022/11/07 12:28:39;;;;;;;35.88;16.33;;;;;;;5.07;72.99;100182.53;4972198;28;20095;-93
2022/11/07 12:31:28;;;;;;;38.25;16.33;;;;;;;4.99;72.75;100176.75;4941177;28;20050;-87
2022/11/07 12:34:22;;;;;;;38.08;15.05;;;;;;;4.88;73.08;100173.91;4971686;28;20549;-92
2022/11/07 12:37:06;;;;;;;39.97;15.82;;;;;;;4.78;73.44;100179.22;4957048;28;20043;-91
2022/11/07 12:40:01;;;;;;;40.03;15.85;;;;;;;4.89;73.46;100177.44;4957115;28;20365;-87
2022/11/07 12:42:45;;;;;;;38.90;16.20;;;;;;;4.88;73.37;100186.66;4950844;29;20092;-85
2022/11/07 12:45:38;;;;;;;38.22;14.35;;;;;;;4.64;73.29;100150.91;4954565;28;20102;-93
2022/11/07 12:48:29;;;;;;;38.25;15.50;;;;;;;4.91;73.52;100172.59;4972173;28;20050;-91
2022/11/07 12:51:02;;;;;;;41.20;17.10;;;;;;;4.90;73.19;100163.66;4963914;28;20074;-92
2022/11/07 12:53:42;;;;;;;43.38;16.70;;;;;;;4.65;73.52;100139.00;4976363;28;20050;-93
2022/11/07 12:56:16;;;;;;;47.05;17.65;;;;;;;4.58;73.67;100135.66;4960036;28;20129;-88
2022/11/07 12:58:47;;;;;;;39.30;14.85;;;;;;;4.70;73.72;100166.13;5000730;23;20107;-88
2022/11/07 13:01:23;;;;;;;44.00;16.75;;;;;;;4.65;73.69;100161.47;5019354;28;20522;-90
2022/11/07 13:04:01;;;;;;;37.75;15.98;;;;;;;4.63;74.12;100166.31;4999710;28;20049;-94
2022/11/07 13:06:51;;;;;;;45.88;17.73;;;;;;;4.64;74.07;100145.50;5018566;28;20041;-89
2022/11/07 13:10:02;;;;;;;49.92;17.35;;;;;;;5.06;73.19;100169.22;5019514;28;20037;-89
2022/11/07 13:15:30;;;;;;;43.53;17.30;;;;;;;4.67;73.15;100117.91;5036302;28;20041;-89
2022/11/07 13:18:01;;;;;;;47.47;18.05;;;;;;;4.69;73.08;100132.81;5000737;28;20034;-93